createdAt,value
2022-12-06T00:01:43.235Z,2.07
2022-12-06T00:04:17.502Z,2.08
2022-12-06T00:06:53.346Z,2.05
2022-12-06T00:09:28.181Z,2.03
2022-12-06T00:12:00.286Z,2.04
2022-12-06T00:14:32.313Z,1.80
2022-12-06T00:17:04.281Z,2.06
2022-12-06T00:19:36.321Z,2.01
2022-12-06T00:22:08.375Z,1.90
2022-12-06T00:24:40.547Z,1.82
2022-12-06T00:27:13.571Z,1.74
2022-12-06T00:29:45.517Z,1.99
2022-12-06T00:32:19.677Z,1.93
2022-12-06T00:34:51.925Z,1.96
2022-12-06T00:37:23.849Z,1.95
2022-12-06T00:39:55.725Z,2.00
2022-12-06T00:42:27.909Z,1.89
2022-12-06T00:44:59.811Z,1.96
2022-12-06T00:47:31.789Z,1.92
2022-12-06T00:50:04.203Z,1.87
2022-12-06T00:52:36.316Z,2.00
2022-12-06T00:55:08.721Z,1.92
2022-12-06T00:57:40.893Z,1.96
2022-12-06T01:00:13.570Z,2.09
2022-12-06T01:02:45.569Z,2.03
2022-12-06T01:05:17.790Z,2.02
2022-12-06T01:07:49.838Z,1.99
2022-12-06T01:10:22.542Z,2.10
2022-12-06T01:12:54.575Z,2.02
2022-12-06T01:15:26.773Z,2.05
2022-12-06T01:17:59.066Z,2.16
2022-12-06T01:20:30.993Z,2.06
2022-12-06T01:23:02.853Z,2.00
2022-12-06T01:25:36.360Z,2.01
2022-12-06T01:28:08.547Z,1.96
2022-12-06T01:30:41.043Z,1.94
2022-12-06T01:33:12.966Z,1.92
2022-12-06T01:35:44.872Z,2.08
2022-12-06T01:38:16.876Z,2.05
2022-12-06T01:40:49.413Z,1.99
2022-12-06T01:43:39.982Z,2.01
2022-12-06T01:46:34.023Z,2.10
2022-12-06T01:49:11.717Z,2.16
2022-12-06T01:51:47.778Z,2.10
2022-12-06T01:54:21.222Z,1.73
2022-12-06T01:56:56.531Z,1.94
2022-12-06T01:59:29.816Z,1.95
2022-12-06T02:02:02.555Z,1.92
2022-12-06T02:04:34.654Z,1.94
2022-12-06T02:07:08.025Z,1.89
2022-12-06T02:09:40.687Z,1.86
2022-12-06T02:12:14.823Z,1.75
2022-12-06T02:14:50.760Z,1.94
2022-12-06T02:17:53.729Z,1.89
2022-12-06T02:21:07.995Z,1.89
2022-12-06T02:23:58.842Z,1.70
2022-12-06T02:26:45.878Z,1.89
2022-12-06T02:29:40.658Z,1.87
2022-12-06T02:32:19.394Z,1.75
2022-12-06T02:34:59.828Z,1.87
2022-12-06T02:37:42.754Z,1.74
2022-12-06T02:40:20.197Z,1.83
2022-12-06T02:42:57.336Z,1.44
2022-12-06T02:45:33.320Z,1.83
2022-12-06T02:48:07.662Z,1.85
2022-12-06T02:50:47.411Z,1.80
2022-12-06T02:53:23.140Z,1.60
2022-12-06T02:55:56.417Z,1.82
2022-12-06T02:58:28.370Z,1.70
2022-12-06T03:01:03.045Z,1.61
2022-12-06T03:03:46.823Z,1.82
2022-12-06T03:06:50.617Z,1.78
2022-12-06T03:09:28.703Z,1.81
2022-12-06T03:12:26.348Z,1.78
2022-12-06T03:15:07.331Z,1.78
2022-12-06T03:18:02.445Z,1.81
2022-12-06T03:20:45.090Z,1.73
2022-12-06T03:23:22.272Z,1.66
2022-12-06T03:25:58.185Z,1.80
2022-12-06T03:28:31.139Z,1.71
2022-12-06T03:31:09.698Z,1.66
2022-12-06T03:33:49.690Z,1.36
2022-12-06T03:36:22.835Z,1.60
2022-12-06T03:39:05.092Z,1.69
2022-12-06T03:41:43.566Z,1.74
2022-12-06T03:44:16.008Z,1.47
2022-12-06T03:46:51.483Z,1.70
2022-12-06T03:49:37.066Z,1.77
2022-12-06T03:52:09.529Z,1.53
2022-12-06T03:54:42.755Z,1.72
2022-12-06T03:57:14.983Z,1.67
2022-12-06T03:59:46.946Z,1.78
2022-12-06T04:02:18.992Z,1.46
2022-12-06T04:04:51.031Z,1.69
2022-12-06T04:07:23.197Z,1.55
2022-12-06T04:10:03.524Z,1.47
2022-12-06T04:12:54.590Z,1.64
2022-12-06T04:15:27.375Z,1.77
2022-12-06T04:18:14.194Z,1.62
2022-12-06T04:21:13.813Z,1.78
2022-12-06T04:23:51.375Z,1.72
2022-12-06T04:26:24.194Z,1.64
2022-12-06T04:29:14.486Z,1.62
2022-12-06T04:32:05.203Z,1.74
2022-12-06T04:34:55.845Z,1.61
2022-12-06T04:37:46.462Z,1.67
2022-12-06T04:40:18.350Z,1.59
2022-12-06T04:43:08.812Z,1.67
2022-12-06T04:45:40.674Z,1.53
2022-12-06T04:48:12.552Z,1.60
2022-12-06T04:50:50.988Z,1.49
2022-12-06T04:53:23.976Z,1.40
2022-12-06T04:55:56.136Z,1.46
2022-12-06T04:58:28.025Z,1.50
2022-12-06T05:01:01.219Z,1.54
2022-12-06T05:03:33.337Z,1.47
2022-12-06T05:06:05.838Z,1.62
2022-12-06T05:08:37.825Z,1.56
2022-12-06T05:11:09.719Z,1.61
2022-12-06T05:13:41.701Z,1.36
2022-12-06T05:16:13.928Z,1.53
2022-12-06T05:18:45.908Z,1.50
2022-12-06T05:21:21.437Z,1.61
2022-12-06T05:23:55.538Z,1.50
2022-12-06T05:26:29.271Z,1.60
2022-12-06T05:29:01.169Z,1.43
2022-12-06T05:31:33.257Z,1.58
2022-12-06T05:34:05.197Z,1.66
2022-12-06T05:36:37.133Z,1.60
2022-12-06T05:39:09.013Z,1.64
2022-12-06T05:41:41.181Z,1.47
2022-12-06T05:44:13.237Z,1.43
2022-12-06T05:46:45.248Z,1.45
2022-12-06T05:49:17.126Z,1.38
2022-12-06T05:51:49.124Z,1.39
2022-12-06T05:54:21.253Z,1.45
2022-12-06T05:56:53.199Z,1.38
2022-12-06T05:59:25.073Z,1.40
2022-12-06T06:01:57.127Z,1.37
2022-12-06T06:04:29.371Z,1.30
2022-12-06T06:07:01.581Z,1.59
2022-12-06T06:09:33.476Z,1.43
2022-12-06T06:12:10.913Z,1.45
2022-12-06T06:14:44.334Z,1.49
2022-12-06T06:17:16.318Z,1.42
2022-12-06T06:19:51.429Z,1.54
2022-12-06T06:22:24.750Z,1.53
2022-12-06T06:24:56.764Z,1.46
2022-12-06T06:27:34.256Z,1.58
2022-12-06T06:30:12.041Z,1.66
2022-12-06T06:32:44.104Z,1.63
2022-12-06T06:35:16.183Z,1.43
2022-12-06T06:37:48.526Z,1.59
2022-12-06T06:40:20.460Z,1.50
2022-12-06T06:42:52.409Z,1.56
2022-12-06T06:45:28.717Z,1.50
2022-12-06T06:48:01.044Z,1.62
2022-12-06T06:50:33.021Z,1.60
2022-12-06T06:53:05.027Z,1.42
2022-12-06T06:55:37.032Z,1.62
2022-12-06T06:58:09.113Z,1.43
2022-12-06T07:00:42.715Z,1.62
2022-12-06T07:03:16.396Z,1.65
2022-12-06T07:05:56.484Z,1.75
2022-12-06T07:08:30.046Z,1.40
2022-12-06T07:11:02.038Z,1.11
2022-12-06T07:13:34.477Z,1.66
2022-12-06T07:16:08.391Z,1.74
2022-12-06T07:18:40.555Z,1.53
2022-12-06T07:21:15.162Z,1.75
2022-12-06T07:23:47.145Z,1.70
2022-12-06T07:26:22.273Z,1.80
2022-12-06T07:28:54.223Z,1.70
2022-12-06T07:31:28.469Z,1.72
2022-12-06T07:34:03.191Z,1.64
2022-12-06T07:36:35.142Z,1.82
2022-12-06T07:39:13.039Z,1.59
2022-12-06T07:42:05.454Z,1.71
2022-12-06T07:45:01.380Z,1.69
2022-12-06T07:47:36.425Z,1.78
2022-12-06T07:50:18.197Z,1.75
2022-12-06T07:52:51.263Z,1.84
2022-12-06T07:55:23.193Z,1.70
2022-12-06T07:57:55.191Z,1.68
2022-12-06T08:00:27.221Z,1.73
2022-12-06T08:02:59.213Z,1.61
2022-12-06T08:05:31.242Z,1.61
2022-12-06T08:08:03.281Z,1.60
2022-12-06T08:10:35.304Z,1.52
2022-12-06T08:13:07.249Z,1.83
2022-12-06T08:15:42.439Z,1.72
2022-12-06T08:18:14.405Z,1.82
2022-12-06T08:20:46.376Z,1.91
2022-12-06T08:23:18.240Z,1.85
2022-12-06T08:26:16.930Z,2.00
2022-12-06T08:28:49.025Z,1.93
2022-12-06T08:31:23.884Z,1.96
2022-12-06T08:33:55.974Z,1.85
2022-12-06T08:36:29.221Z,1.94
2022-12-06T08:39:01.659Z,1.92
2022-12-06T08:41:52.167Z,1.99
2022-12-06T08:44:26.592Z,2.06
2022-12-06T08:47:01.221Z,1.97
2022-12-06T08:49:33.402Z,1.98
2022-12-06T08:52:05.506Z,2.13
2022-12-06T08:54:38.530Z,2.05
2022-12-06T08:57:10.444Z,2.13
2022-12-06T08:59:43.193Z,1.57
2022-12-06T09:02:15.241Z,1.90
2022-12-06T09:04:52.043Z,1.91
2022-12-06T09:07:26.579Z,1.99
2022-12-06T09:09:58.714Z,1.96
2022-12-06T09:12:30.834Z,1.94
2022-12-06T09:15:02.925Z,2.08
2022-12-06T09:17:35.893Z,2.21
2022-12-06T09:20:08.947Z,2.29
2022-12-06T09:22:41.404Z,2.25
2022-12-06T09:25:13.408Z,2.29
2022-12-06T09:27:45.361Z,2.35
2022-12-06T09:30:17.918Z,2.24
2022-12-06T09:32:49.906Z,2.16
2022-12-06T09:35:25.233Z,2.27
2022-12-06T09:37:59.246Z,2.05
2022-12-06T09:41:04.176Z,2.22
2022-12-06T09:44:08.145Z,2.34
2022-12-06T09:47:33.070Z,2.38
2022-12-06T09:50:23.566Z,2.30
2022-12-06T09:53:19.067Z,2.34
2022-12-06T09:56:06.582Z,2.32
2022-12-06T09:58:44.442Z,2.25
2022-12-06T10:01:22.313Z,2.33
2022-12-06T10:04:14.718Z,2.32
2022-12-06T10:07:06.227Z,2.21
2022-12-06T10:09:40.920Z,2.36
2022-12-06T10:12:51.479Z,2.42
2022-12-06T10:15:32.702Z,2.45
2022-12-06T10:18:20.659Z,2.40
2022-12-06T10:21:13.435Z,2.42
2022-12-06T10:24:28.047Z,2.51
2022-12-06T10:27:10.666Z,2.38
2022-12-06T10:30:01.898Z,2.38
2022-12-06T10:33:20.365Z,2.45
2022-12-06T10:36:05.593Z,2.34
2022-12-06T10:38:44.149Z,2.43
2022-12-06T10:41:30.966Z,2.48
2022-12-06T10:44:13.641Z,2.37
2022-12-06T10:47:07.248Z,2.38
2022-12-06T10:49:52.852Z,2.50
2022-12-06T10:52:44.519Z,2.44
2022-12-06T10:55:29.933Z,2.37
2022-12-06T10:58:27.245Z,2.48
2022-12-06T11:01:07.953Z,2.49
2022-12-06T11:03:44.522Z,2.49
2022-12-06T11:06:43.922Z,2.55
2022-12-06T11:09:24.418Z,2.49
2022-12-06T11:11:56.986Z,2.67
2022-12-06T11:14:38.794Z,2.43
2022-12-06T11:17:23.058Z,2.55
2022-12-06T11:20:23.838Z,2.28
2022-12-06T11:23:33.118Z,2.49
2022-12-06T11:26:11.909Z,2.40
2022-12-06T11:28:55.965Z,2.60
2022-12-06T11:31:46.857Z,2.68
2022-12-06T11:34:33.304Z,2.63
2022-12-06T11:37:06.731Z,2.61
2022-12-06T11:39:40.186Z,2.70
2022-12-06T11:42:15.196Z,2.57
2022-12-06T11:44:57.712Z,2.67
2022-12-06T11:47:29.889Z,2.44
2022-12-06T11:50:08.489Z,2.59
2022-12-06T11:52:50.841Z,2.44
2022-12-06T11:55:25.920Z,2.44
2022-12-06T11:58:13.842Z,2.57
2022-12-06T12:01:11.118Z,2.66
2022-12-06T12:03:45.487Z,2.66
2022-12-06T12:06:29.426Z,2.45
2022-12-06T12:09:06.611Z,2.56
2022-12-06T12:11:42.570Z,2.59
2022-12-06T12:14:24.521Z,2.44
2022-12-06T12:17:01.653Z,2.69
2022-12-06T12:19:36.530Z,2.69
2022-12-06T12:22:24.189Z,2.69
2022-12-06T12:27:55.165Z,2.62
2022-12-06T12:30:32.656Z,2.65
2022-12-06T12:33:07.662Z,2.74
2022-12-06T12:35:51.511Z,2.63
2022-12-06T12:38:28.791Z,2.72
2022-12-06T12:41:12.827Z,2.74
2022-12-06T12:44:20.493Z,2.54
2022-12-06T12:47:19.206Z,2.49
2022-12-06T12:50:03.908Z,2.59
2022-12-06T12:52:41.010Z,2.56
2022-12-06T12:55:13.081Z,2.69
2022-12-06T12:57:51.142Z,2.65
2022-12-06T13:00:31.279Z,2.63
2022-12-06T13:03:28.579Z,2.44
2022-12-06T13:06:03.146Z,2.32
2022-12-06T13:08:37.603Z,2.43
2022-12-06T13:11:10.022Z,2.51
2022-12-06T13:13:50.344Z,2.47
2022-12-06T13:16:28.855Z,2.48
2022-12-06T13:19:02.519Z,2.19
2022-12-06T13:21:41.613Z,2.36
2022-12-06T13:24:23.648Z,2.41
2022-12-06T13:27:02.679Z,2.21
2022-12-06T13:30:00.738Z,2.41
2022-12-06T13:32:39.305Z,2.27
2022-12-06T13:35:35.752Z,2.39
2022-12-06T13:38:25.878Z,2.44
2022-12-06T13:41:06.262Z,2.36
2022-12-06T13:43:40.193Z,2.40
2022-12-06T13:46:25.776Z,2.25
2022-12-06T13:49:00.318Z,2.30
2022-12-06T13:51:32.836Z,2.38
2022-12-06T13:54:04.997Z,2.43
2022-12-06T13:56:36.893Z,2.46
2022-12-06T13:59:12.187Z,2.32
2022-12-06T14:01:46.546Z,2.40
2022-12-06T14:04:24.427Z,2.54
2022-12-06T14:07:00.428Z,2.55
2022-12-06T14:09:43.862Z,2.45
2022-12-06T14:12:22.474Z,2.44
2022-12-06T14:15:02.600Z,2.46
2022-12-06T14:20:33.928Z,2.38
2022-12-06T14:23:25.880Z,2.49
2022-12-06T14:26:13.208Z,2.49
2022-12-06T14:28:46.124Z,2.20
2022-12-06T14:31:22.262Z,2.52
2022-12-06T14:33:55.819Z,2.35
2022-12-06T14:36:32.359Z,2.24
2022-12-06T14:39:15.139Z,2.34
2022-12-06T14:42:33.710Z,2.36
2022-12-06T14:45:13.417Z,2.39
2022-12-06T14:47:45.708Z,2.11
2022-12-06T14:50:32.357Z,2.34
2022-12-06T14:53:34.672Z,2.33
2022-12-06T14:56:07.726Z,2.32
2022-12-06T14:58:43.194Z,2.29
2022-12-06T15:01:25.762Z,2.32
2022-12-06T15:04:02.777Z,2.40
2022-12-06T15:06:36.757Z,2.22
2022-12-06T15:09:14.762Z,2.12
2022-12-06T15:12:05.064Z,2.24
2022-12-06T15:14:39.814Z,2.34
2022-12-06T15:17:11.749Z,2.37
2022-12-06T15:19:49.455Z,2.33
2022-12-06T15:22:29.204Z,2.40
2022-12-06T15:25:01.232Z,2.28
2022-12-06T15:27:34.487Z,2.42
2022-12-06T15:30:07.533Z,2.33
2022-12-06T15:32:39.574Z,2.19
2022-12-06T15:35:18.458Z,2.42
2022-12-06T15:37:50.752Z,2.30
2022-12-06T15:40:22.720Z,2.30
2022-12-06T15:42:57.843Z,2.25
2022-12-06T15:45:34.064Z,2.11
2022-12-06T15:48:06.949Z,2.26
2022-12-06T15:50:38.893Z,2.13
2022-12-06T15:53:14.730Z,2.19
2022-12-06T15:55:47.345Z,2.16
2022-12-06T15:58:20.122Z,2.26
2022-12-06T16:00:52.062Z,2.16
2022-12-06T16:03:23.954Z,1.95
2022-12-06T16:05:57.303Z,2.02
2022-12-06T16:08:29.262Z,2.14
2022-12-06T16:11:11.684Z,2.12
2022-12-06T16:13:44.541Z,1.91
2022-12-06T16:16:19.763Z,1.99
2022-12-06T16:18:51.906Z,1.99
2022-12-06T16:21:27.655Z,2.20
2022-12-06T16:24:13.938Z,2.24
2022-12-06T16:26:46.449Z,2.14
2022-12-06T16:29:23.450Z,2.00
2022-12-06T16:31:55.422Z,1.95
2022-12-06T16:34:28.801Z,2.07
2022-12-06T16:37:03.156Z,2.19
2022-12-06T16:39:35.745Z,1.98
2022-12-06T16:42:07.678Z,2.06
2022-12-06T16:44:51.613Z,2.03
2022-12-06T16:49:54.464Z,2.01
2022-12-06T16:52:26.424Z,2.12
2022-12-06T16:54:58.605Z,2.27
2022-12-06T16:57:30.814Z,2.14
2022-12-06T17:00:05.262Z,2.38
2022-12-06T17:02:37.416Z,2.18
2022-12-06T17:05:17.925Z,2.31
2022-12-06T17:07:50.621Z,2.22
2022-12-06T17:10:22.842Z,2.30
2022-12-06T17:12:54.749Z,2.53
2022-12-06T17:15:26.761Z,2.49
2022-12-06T17:17:58.777Z,2.45
2022-12-06T17:20:30.705Z,2.67
2022-12-06T17:23:03.614Z,2.56
2022-12-06T17:25:35.627Z,2.59
2022-12-06T17:28:07.585Z,2.57
2022-12-06T17:30:40.181Z,2.63
2022-12-06T17:33:12.123Z,2.73
2022-12-06T17:35:44.131Z,2.69
2022-12-06T17:38:16.142Z,2.62
2022-12-06T17:40:48.117Z,2.66
2022-12-06T17:43:20.054Z,2.58
2022-12-06T17:45:52.317Z,2.63
2022-12-06T17:48:24.344Z,2.63
2022-12-06T17:50:56.510Z,2.72
2022-12-06T17:53:28.534Z,2.70
2022-12-06T17:56:22.239Z,2.81
2022-12-06T17:58:55.660Z,2.72
2022-12-06T18:01:50.897Z,2.68
2022-12-06T18:04:21.046Z,2.69
2022-12-06T18:06:53.865Z,2.81
2022-12-06T18:09:26.026Z,2.59
2022-12-06T18:11:58.307Z,2.89
2022-12-06T18:14:30.445Z,2.85
2022-12-06T18:17:03.048Z,2.88
2022-12-06T18:19:35.313Z,2.73
2022-12-06T18:22:08.060Z,2.77
2022-12-06T18:24:39.952Z,2.90
2022-12-06T18:27:11.974Z,2.83
2022-12-06T18:29:43.997Z,2.82
2022-12-06T18:32:16.013Z,2.85
2022-12-06T18:34:48.013Z,2.86
2022-12-06T18:37:19.943Z,2.81
2022-12-06T18:39:51.922Z,2.80
2022-12-06T18:42:23.846Z,2.82
2022-12-06T18:44:58.501Z,2.86
2022-12-06T18:47:30.802Z,2.99
2022-12-06T18:50:02.905Z,2.91
2022-12-06T18:52:35.746Z,2.92
2022-12-06T18:55:08.417Z,2.92
2022-12-06T18:57:40.504Z,2.98
2022-12-06T19:00:13.133Z,2.91
2022-12-06T19:02:45.084Z,3.03
2022-12-06T19:05:33.066Z,3.04
2022-12-06T19:08:09.958Z,3.01
2022-12-06T19:10:42.319Z,2.99
2022-12-06T19:13:14.266Z,2.99
2022-12-06T19:15:46.222Z,2.86
2022-12-06T19:18:18.164Z,2.89
2022-12-06T19:20:50.143Z,2.88
2022-12-06T19:23:23.010Z,2.78
2022-12-06T19:26:05.011Z,2.83
2022-12-06T19:28:40.438Z,2.82
2022-12-06T19:31:14.470Z,2.85
2022-12-06T19:33:47.077Z,2.78
2022-12-06T19:36:24.896Z,2.87
2022-12-06T19:39:02.304Z,2.69
2022-12-06T19:41:54.702Z,2.83
2022-12-06T19:44:27.688Z,2.51
2022-12-06T19:46:59.829Z,2.70
2022-12-06T19:49:34.807Z,2.61
2022-12-06T19:52:06.917Z,2.58
2022-12-06T19:54:40.465Z,2.57
2022-12-06T19:57:12.410Z,2.48
2022-12-06T19:59:44.414Z,2.49
2022-12-06T20:02:16.391Z,2.30
2022-12-06T20:04:49.078Z,2.12
2022-12-06T20:07:21.053Z,2.17
2022-12-06T20:09:53.003Z,2.10
2022-12-06T20:12:24.947Z,2.06
2022-12-06T20:14:56.984Z,2.04
2022-12-06T20:17:28.997Z,1.99
2022-12-06T20:20:02.419Z,2.11
2022-12-06T20:22:34.533Z,1.71
2022-12-06T20:25:06.667Z,2.12
2022-12-06T20:27:53.907Z,2.15
2022-12-06T20:30:26.038Z,1.99
2022-12-06T20:32:57.998Z,1.40
2022-12-06T20:35:30.003Z,1.74
2022-12-06T20:38:01.980Z,1.79
2022-12-06T20:40:34.897Z,1.74
2022-12-06T20:43:06.829Z,1.86
2022-12-06T20:45:38.989Z,1.50
2022-12-06T20:48:10.959Z,1.65
2022-12-06T20:50:42.921Z,1.68
2022-12-06T20:53:14.820Z,1.83
2022-12-06T20:55:46.768Z,1.87
2022-12-06T20:58:18.752Z,1.91
2022-12-06T21:00:50.717Z,1.83
2022-12-06T21:03:22.766Z,1.85
2022-12-06T21:06:01.971Z,1.64
2022-12-06T21:08:34.314Z,1.68
2022-12-06T21:11:24.119Z,1.63
2022-12-06T21:13:58.205Z,1.75
2022-12-06T21:16:31.925Z,1.85
2022-12-06T21:19:09.570Z,1.93
2022-12-06T21:21:45.300Z,1.90
2022-12-06T21:24:20.289Z,1.89
2022-12-06T21:26:52.321Z,1.87
2022-12-06T21:29:30.440Z,1.98
2022-12-06T21:32:03.214Z,1.88
2022-12-06T21:34:35.330Z,1.50
2022-12-06T21:37:07.721Z,1.73
2022-12-06T21:39:39.662Z,1.68
2022-12-06T21:42:15.671Z,1.63
2022-12-06T21:44:47.791Z,1.65
2022-12-06T21:47:19.796Z,1.38
2022-12-06T21:49:51.744Z,1.42
2022-12-06T21:52:23.744Z,1.20
2022-12-06T21:54:56.805Z,1.58
2022-12-06T21:57:28.741Z,1.48
2022-12-06T22:00:01.152Z,1.47
2022-12-06T22:02:33.615Z,1.60
2022-12-06T22:05:06.089Z,1.61
2022-12-06T22:07:38.102Z,1.58
2022-12-06T22:10:11.305Z,1.62
2022-12-06T22:12:43.343Z,1.57
2022-12-06T22:15:18.357Z,1.60
2022-12-06T22:17:50.316Z,1.60
2022-12-06T22:20:22.304Z,1.62
2022-12-06T22:22:54.245Z,1.42
2022-12-06T22:25:26.351Z,1.57
2022-12-06T22:27:58.298Z,1.57
2022-12-06T22:30:30.250Z,1.31
2022-12-06T22:33:02.239Z,1.54
2022-12-06T22:35:34.382Z,1.38
2022-12-06T22:38:06.323Z,1.35
2022-12-06T22:40:38.442Z,1.41
2022-12-06T22:43:10.473Z,1.31
2022-12-06T22:45:42.404Z,1.37
2022-12-06T22:48:14.397Z,1.36
2022-12-06T22:50:46.395Z,1.49
2022-12-06T22:53:18.373Z,1.44
2022-12-06T22:55:50.233Z,1.40
2022-12-06T22:58:22.443Z,1.42
2022-12-06T23:00:54.339Z,1.46
2022-12-06T23:03:26.326Z,1.56
2022-12-06T23:05:59.873Z,1.50
2022-12-06T23:08:32.116Z,1.55
2022-12-06T23:11:11.947Z,1.69
2022-12-06T23:13:44.380Z,1.68
2022-12-06T23:16:22.127Z,1.52
2022-12-06T23:18:54.732Z,1.69
2022-12-06T23:21:35.584Z,1.67
2022-12-06T23:24:09.873Z,1.67
2022-12-06T23:26:45.470Z,1.68
2022-12-06T23:29:17.617Z,1.59
2022-12-06T23:31:49.688Z,1.47
2022-12-06T23:34:26.950Z,1.54
2022-12-06T23:36:58.950Z,1.63
2022-12-06T23:39:31.004Z,1.60
2022-12-06T23:42:02.931Z,1.35
2022-12-06T23:44:35.132Z,1.53
2022-12-06T23:47:07.180Z,1.61
2022-12-06T23:49:39.150Z,1.50
2022-12-06T23:52:11.090Z,1.43
2022-12-06T23:54:43.058Z,1.45
2022-12-06T23:57:15.328Z,1.44
2022-12-06T23:59:47.256Z,1.45
